sensor_id;sensor_type;location;lat;lon;timestamp;P1;durP1;ratioP1;P2;durP2;ratioP2
22131;SDS011;11232;51.748;19.390;2022-09-13T00:00:47;10.53;;;6.37;;
22131;SDS011;11232;51.748;19.390;2022-09-13T00:03:13;11.53;;;6.67;;
22131;SDS011;11232;51.748;19.390;2022-09-13T00:05:39;11.63;;;5.60;;
22131;SDS011;11232;51.748;19.390;2022-09-13T00:08:05;9.53;;;6.20;;
22131;SDS011;11232;51.748;19.390;2022-09-13T00:10:32;10.03;;;5.93;;
22131;SDS011;11232;51.748;19.390;2022-09-13T00:12:59;8.47;;;5.50;;
22131;SDS011;11232;51.748;19.390;2022-09-13T00:15:25;10.30;;;6.17;;
22131;SDS011;11232;51.748;19.390;2022-09-13T00:17:51;11.63;;;6.00;;
22131;SDS011;11232;51.748;19.390;2022-09-13T00:20:17;9.77;;;6.20;;
22131;SDS011;11232;51.748;19.390;2022-09-13T00:22:42;14.87;;;6.67;;
22131;SDS011;11232;51.748;19.390;2022-09-13T00:25:08;11.33;;;6.47;;
22131;SDS011;11232;51.748;19.390;2022-09-13T00:27:34;10.50;;;6.50;;
22131;SDS011;11232;51.748;19.390;2022-09-13T00:30:01;11.30;;;6.47;;
22131;SDS011;11232;51.748;19.390;2022-09-13T00:32:28;9.93;;;6.13;;
22131;SDS011;11232;51.748;19.390;2022-09-13T00:34:54;16.27;;;7.37;;
22131;SDS011;11232;51.748;19.390;2022-09-13T00:37:20;11.43;;;6.63;;
22131;SDS011;11232;51.748;19.390;2022-09-13T00:39:45;12.97;;;7.47;;
22131;SDS011;11232;51.748;19.390;2022-09-13T00:42:11;13.47;;;7.87;;
22131;SDS011;11232;51.748;19.390;2022-09-13T00:47:24;16.40;;;9.30;;
22131;SDS011;11232;51.748;19.390;2022-09-13T00:49:51;21.10;;;9.30;;
22131;SDS011;11232;51.748;19.390;2022-09-13T00:52:22;15.77;;;7.60;;
22131;SDS011;11232;51.748;19.390;2022-09-13T00:54:54;13.00;;;7.70;;
22131;SDS011;11232;51.748;19.390;2022-09-13T00:57:30;13.00;;;8.03;;
22131;SDS011;11232;51.748;19.390;2022-09-13T01:00:08;20.10;;;11.03;;
22131;SDS011;11232;51.748;19.390;2022-09-13T01:02:38;21.17;;;11.73;;
22131;SDS011;11232;51.748;19.390;2022-09-13T01:05:08;19.77;;;11.60;;
22131;SDS011;11232;51.748;19.390;2022-09-13T01:07:35;28.20;;;12.80;;
22131;SDS011;11232;51.748;19.390;2022-09-13T01:10:02;21.97;;;12.03;;
22131;SDS011;11232;51.748;19.390;2022-09-13T01:12:32;15.07;;;9.67;;
22131;SDS011;11232;51.748;19.390;2022-09-13T01:15:04;22.63;;;11.87;;
22131;SDS011;11232;51.748;19.390;2022-09-13T01:17:30;24.50;;;12.47;;
22131;SDS011;11232;51.748;19.390;2022-09-13T01:19:58;18.97;;;8.93;;
22131;SDS011;11232;51.748;19.390;2022-09-13T01:30:28;15.37;;;7.23;;
22131;SDS011;11232;51.748;19.390;2022-09-13T01:36:09;20.27;;;11.20;;
22131;SDS011;11232;51.748;19.390;2022-09-13T01:42:01;18.80;;;11.77;;
22131;SDS011;11232;51.748;19.390;2022-09-13T02:00:56;18.97;;;11.40;;
22131;SDS011;11232;51.748;19.390;2022-09-13T02:03:36;23.57;;;11.50;;
22131;SDS011;11232;51.748;19.390;2022-09-13T02:06:13;15.00;;;9.53;;
22131;SDS011;11232;51.748;19.390;2022-09-13T02:08:49;19.77;;;10.27;;
22131;SDS011;11232;51.748;19.390;2022-09-13T02:11:20;20.77;;;11.17;;
22131;SDS011;11232;51.748;19.390;2022-09-13T02:13:48;15.60;;;9.30;;
22131;SDS011;11232;51.748;19.390;2022-09-13T02:16:27;19.47;;;11.17;;
22131;SDS011;11232;51.748;19.390;2022-09-13T02:19:05;18.40;;;11.03;;
22131;SDS011;11232;51.748;19.390;2022-09-13T02:21:38;18.43;;;11.47;;
22131;SDS011;11232;51.748;19.390;2022-09-13T02:24:17;17.53;;;11.20;;
22131;SDS011;11232;51.748;19.390;2022-09-13T02:26:46;19.63;;;10.90;;
22131;SDS011;11232;51.748;19.390;2022-09-13T02:29:17;18.93;;;11.80;;
22131;SDS011;11232;51.748;19.390;2022-09-13T02:31:49;18.60;;;11.20;;
22131;SDS011;11232;51.748;19.390;2022-09-13T02:34:23;22.57;;;11.77;;
22131;SDS011;11232;51.748;19.390;2022-09-13T02:36:52;20.70;;;11.70;;
22131;SDS011;11232;51.748;19.390;2022-09-13T02:39:21;17.40;;;11.67;;
22131;SDS011;11232;51.748;19.390;2022-09-13T02:41:57;21.10;;;11.60;;
22131;SDS011;11232;51.748;19.390;2022-09-13T02:44:45;18.43;;;11.67;;
22131;SDS011;11232;51.748;19.390;2022-09-13T02:58:21;20.60;;;11.40;;
22131;SDS011;11232;51.748;19.390;2022-09-13T03:00:56;18.03;;;11.30;;
22131;SDS011;11232;51.748;19.390;2022-09-13T03:03:22;18.77;;;11.70;;
22131;SDS011;11232;51.748;19.390;2022-09-13T03:05:48;20.07;;;10.97;;
22131;SDS011;11232;51.748;19.390;2022-09-13T03:08:14;21.60;;;11.40;;
22131;SDS011;11232;51.748;19.390;2022-09-13T03:13:31;17.00;;;11.27;;
22131;SDS011;11232;51.748;19.390;2022-09-13T03:19:03;17.97;;;11.03;;
22131;SDS011;11232;51.748;19.390;2022-09-13T03:21:40;15.23;;;10.20;;
22131;SDS011;11232;51.748;19.390;2022-09-13T03:27:26;20.53;;;10.83;;
22131;SDS011;11232;51.748;19.390;2022-09-13T03:30:15;17.57;;;10.63;;
22131;SDS011;11232;51.748;19.390;2022-09-13T03:40:58;19.33;;;10.03;;
22131;SDS011;11232;51.748;19.390;2022-09-13T03:43:43;14.40;;;9.87;;
22131;SDS011;11232;51.748;19.390;2022-09-13T03:46:10;18.03;;;10.73;;
22131;SDS011;11232;51.748;19.390;2022-09-13T03:48:40;15.93;;;9.43;;
22131;SDS011;11232;51.748;19.390;2022-09-13T03:51:07;17.13;;;9.47;;
22131;SDS011;11232;51.748;19.390;2022-09-13T03:53:36;16.63;;;9.67;;
22131;SDS011;11232;51.748;19.390;2022-09-13T03:56:16;16.30;;;10.20;;
22131;SDS011;11232;51.748;19.390;2022-09-13T03:58:44;24.90;;;11.57;;
22131;SDS011;11232;51.748;19.390;2022-09-13T04:01:19;17.73;;;10.83;;
22131;SDS011;11232;51.748;19.390;2022-09-13T04:03:47;18.93;;;11.13;;
22131;SDS011;11232;51.748;19.390;2022-09-13T04:06:13;20.70;;;10.97;;
22131;SDS011;11232;51.748;19.390;2022-09-13T04:08:39;18.80;;;10.30;;
22131;SDS011;11232;51.748;19.390;2022-09-13T04:11:05;15.50;;;9.97;;
22131;SDS011;11232;51.748;19.390;2022-09-13T04:13:30;25.50;;;10.17;;
22131;SDS011;11232;51.748;19.390;2022-09-13T04:15:59;17.83;;;10.03;;
22131;SDS011;11232;51.748;19.390;2022-09-13T04:18:28;15.67;;;10.33;;
22131;SDS011;11232;51.748;19.390;2022-09-13T04:20:58;16.40;;;11.03;;
22131;SDS011;11232;51.748;19.390;2022-09-13T04:23:25;17.53;;;10.80;;
22131;SDS011;11232;51.748;19.390;2022-09-13T04:25:53;19.83;;;11.07;;
22131;SDS011;11232;51.748;19.390;2022-09-13T04:28:19;19.83;;;11.50;;
22131;SDS011;11232;51.748;19.390;2022-09-13T04:30:48;14.70;;;10.60;;
22131;SDS011;11232;51.748;19.390;2022-09-13T04:33:14;16.30;;;10.80;;
22131;SDS011;11232;51.748;19.390;2022-09-13T04:35:43;15.37;;;10.87;;
22131;SDS011;11232;51.748;19.390;2022-09-13T04:38:08;17.63;;;11.83;;
22131;SDS011;11232;51.748;19.390;2022-09-13T04:40:34;18.67;;;12.00;;
22131;SDS011;11232;51.748;19.390;2022-09-13T04:43:01;18.07;;;11.93;;
22131;SDS011;11232;51.748;19.390;2022-09-13T04:45:27;17.23;;;11.80;;
22131;SDS011;11232;51.748;19.390;2022-09-13T04:47:53;18.40;;;11.93;;
22131;SDS011;11232;51.748;19.390;2022-09-13T04:50:20;19.03;;;11.60;;
22131;SDS011;11232;51.748;19.390;2022-09-13T04:52:47;17.37;;;11.47;;
22131;SDS011;11232;51.748;19.390;2022-09-13T04:55:12;22.27;;;12.60;;
22131;SDS011;11232;51.748;19.390;2022-09-13T04:57:38;20.50;;;12.00;;
22131;SDS011;11232;51.748;19.390;2022-09-13T05:00:05;17.77;;;11.77;;
22131;SDS011;11232;51.748;19.390;2022-09-13T05:02:31;17.70;;;11.57;;
22131;SDS011;11232;51.748;19.390;2022-09-13T05:04:57;19.33;;;12.30;;
22131;SDS011;11232;51.748;19.390;2022-09-13T05:07:22;22.60;;;12.97;;
22131;SDS011;11232;51.748;19.390;2022-09-13T05:09:48;26.03;;;14.00;;
22131;SDS011;11232;51.748;19.390;2022-09-13T05:12:14;20.37;;;13.60;;
22131;SDS011;11232;51.748;19.390;2022-09-13T05:14:39;20.40;;;13.03;;
22131;SDS011;11232;51.748;19.390;2022-09-13T05:17:05;18.57;;;12.17;;
22131;SDS011;11232;51.748;19.390;2022-09-13T05:19:31;18.80;;;12.77;;
22131;SDS011;11232;51.748;19.390;2022-09-13T05:21:56;25.90;;;13.07;;
22131;SDS011;11232;51.748;19.390;2022-09-13T05:24:22;19.33;;;13.10;;
22131;SDS011;11232;51.748;19.390;2022-09-13T05:26:47;24.07;;;13.40;;
22131;SDS011;11232;51.748;19.390;2022-09-13T05:29:13;20.60;;;13.77;;
22131;SDS011;11232;51.748;19.390;2022-09-13T05:31:39;20.33;;;13.47;;
22131;SDS011;11232;51.748;19.390;2022-09-13T05:34:07;18.83;;;13.33;;
22131;SDS011;11232;51.748;19.390;2022-09-13T05:36:35;19.53;;;12.77;;
22131;SDS011;11232;51.748;19.390;2022-09-13T05:39:01;25.63;;;13.07;;
22131;SDS011;11232;51.748;19.390;2022-09-13T05:41:27;20.00;;;12.40;;
22131;SDS011;11232;51.748;19.390;2022-09-13T05:43:52;18.03;;;12.63;;
22131;SDS011;11232;51.748;19.390;2022-09-13T05:46:19;20.13;;;13.13;;
22131;SDS011;11232;51.748;19.390;2022-09-13T05:48:45;17.13;;;12.10;;
22131;SDS011;11232;51.748;19.390;2022-09-13T05:51:19;20.70;;;12.53;;
22131;SDS011;11232;51.748;19.390;2022-09-13T05:53:47;17.80;;;12.10;;
22131;SDS011;11232;51.748;19.390;2022-09-13T05:56:15;24.23;;;14.40;;
22131;SDS011;11232;51.748;19.390;2022-09-13T05:58:43;23.67;;;14.03;;
22131;SDS011;11232;51.748;19.390;2022-09-13T06:01:12;25.57;;;13.40;;
22131;SDS011;11232;51.748;19.390;2022-09-13T06:03:38;21.45;;;13.00;;
22131;SDS011;11232;51.748;19.390;2022-09-13T06:06:04;24.47;;;13.90;;
22131;SDS011;11232;51.748;19.390;2022-09-13T06:08:31;19.45;;;12.95;;
22131;SDS011;11232;51.748;19.390;2022-09-13T06:10:58;21.92;;;13.60;;
22131;SDS011;11232;51.748;19.390;2022-09-13T06:13:26;19.03;;;12.67;;
22131;SDS011;11232;51.748;19.390;2022-09-13T06:15:53;21.52;;;13.65;;
22131;SDS011;11232;51.748;19.390;2022-09-13T06:18:20;19.00;;;13.23;;
22131;SDS011;11232;51.748;19.390;2022-09-13T06:20:46;24.40;;;12.70;;
22131;SDS011;11232;51.748;19.390;2022-09-13T06:23:12;21.30;;;12.73;;
22131;SDS011;11232;51.748;19.390;2022-09-13T06:25:39;24.80;;;13.40;;
22131;SDS011;11232;51.748;19.390;2022-09-13T06:28:05;18.85;;;12.95;;
22131;SDS011;11232;51.748;19.390;2022-09-13T06:30:31;18.40;;;12.93;;
22131;SDS011;11232;51.748;19.390;2022-09-13T06:32:57;18.90;;;13.40;;
22131;SDS011;11232;51.748;19.390;2022-09-13T06:35:23;19.00;;;13.40;;
22131;SDS011;11232;51.748;19.390;2022-09-13T06:37:49;17.55;;;12.93;;
22131;SDS011;11232;51.748;19.390;2022-09-13T06:40:15;16.67;;;12.30;;
22131;SDS011;11232;51.748;19.390;2022-09-13T06:42:41;23.40;;;14.18;;
22131;SDS011;11232;51.748;19.390;2022-09-13T06:45:06;18.25;;;12.90;;
22131;SDS011;11232;51.748;19.390;2022-09-13T06:47:32;16.50;;;11.88;;
22131;SDS011;11232;51.748;19.390;2022-09-13T06:49:58;16.52;;;11.88;;
22131;SDS011;11232;51.748;19.390;2022-09-13T06:52:25;21.85;;;12.90;;
22131;SDS011;11232;51.748;19.390;2022-09-13T06:54:51;23.48;;;12.68;;
22131;SDS011;11232;51.748;19.390;2022-09-13T06:57:17;17.23;;;12.85;;
22131;SDS011;11232;51.748;19.390;2022-09-13T06:59:43;16.05;;;11.73;;
22131;SDS011;11232;51.748;19.390;2022-09-13T07:02:09;19.50;;;12.48;;
22131;SDS011;11232;51.748;19.390;2022-09-13T07:04:35;16.55;;;11.88;;
22131;SDS011;11232;51.748;19.390;2022-09-13T07:07:01;21.52;;;12.30;;
22131;SDS011;11232;51.748;19.390;2022-09-13T07:09:26;18.42;;;12.30;;
22131;SDS011;11232;51.748;19.390;2022-09-13T07:11:53;23.05;;;14.77;;
22131;SDS011;11232;51.748;19.390;2022-09-13T07:14:24;16.08;;;12.65;;
22131;SDS011;11232;51.748;19.390;2022-09-13T07:16:51;16.10;;;12.27;;
22131;SDS011;11232;51.748;19.390;2022-09-13T07:19:20;16.60;;;12.18;;
22131;SDS011;11232;51.748;19.390;2022-09-13T07:21:48;19.10;;;12.48;;
22131;SDS011;11232;51.748;19.390;2022-09-13T07:24:15;17.58;;;12.60;;
22131;SDS011;11232;51.748;19.390;2022-09-13T07:26:41;14.63;;;10.52;;
22131;SDS011;11232;51.748;19.390;2022-09-13T07:29:10;16.27;;;12.23;;
22131;SDS011;11232;51.748;19.390;2022-09-13T07:31:39;17.38;;;11.63;;
22131;SDS011;11232;51.748;19.390;2022-09-13T07:34:09;13.73;;;10.60;;
22131;SDS011;11232;51.748;19.390;2022-09-13T07:36:38;18.27;;;11.18;;
22131;SDS011;11232;51.748;19.390;2022-09-13T07:39:03;15.77;;;10.90;;
22131;SDS011;11232;51.748;19.390;2022-09-13T07:41:30;14.35;;;9.88;;
22131;SDS011;11232;51.748;19.390;2022-09-13T07:43:57;13.57;;;9.68;;
22131;SDS011;11232;51.748;19.390;2022-09-13T07:46:27;15.23;;;10.63;;
22131;SDS011;11232;51.748;19.390;2022-09-13T07:48:56;16.33;;;9.52;;
22131;SDS011;11232;51.748;19.390;2022-09-13T07:51:23;13.95;;;9.45;;
22131;SDS011;11232;51.748;19.390;2022-09-13T07:53:51;10.85;;;8.93;;
22131;SDS011;11232;51.748;19.390;2022-09-13T07:56:21;13.70;;;9.85;;
22131;SDS011;11232;51.748;19.390;2022-09-13T07:58:49;13.15;;;9.27;;
22131;SDS011;11232;51.748;19.390;2022-09-13T08:03:43;9.52;;;7.63;;
22131;SDS011;11232;51.748;19.390;2022-09-13T08:06:09;9.82;;;6.97;;
22131;SDS011;11232;51.748;19.390;2022-09-13T08:08:35;14.07;;;7.90;;
22131;SDS011;11232;51.748;19.390;2022-09-13T08:11:02;12.15;;;7.30;;
22131;SDS011;11232;51.748;19.390;2022-09-13T08:13:30;12.43;;;8.45;;
22131;SDS011;11232;51.748;19.390;2022-09-13T08:16:05;13.30;;;7.93;;
22131;SDS011;11232;51.748;19.390;2022-09-13T08:18:31;13.70;;;8.00;;
22131;SDS011;11232;51.748;19.390;2022-09-13T08:20:57;11.43;;;7.40;;
22131;SDS011;11232;51.748;19.390;2022-09-13T08:23:24;11.48;;;7.63;;
22131;SDS011;11232;51.748;19.390;2022-09-13T08:25:50;11.65;;;8.15;;
22131;SDS011;11232;51.748;19.390;2022-09-13T08:28:17;9.95;;;8.18;;
22131;SDS011;11232;51.748;19.390;2022-09-13T08:30:45;8.82;;;7.72;;
22131;SDS011;11232;51.748;19.390;2022-09-13T08:33:11;10.25;;;7.10;;
22131;SDS011;11232;51.748;19.390;2022-09-13T08:35:37;9.15;;;7.25;;
22131;SDS011;11232;51.748;19.390;2022-09-13T08:38:03;10.15;;;6.82;;
22131;SDS011;11232;51.748;19.390;2022-09-13T08:40:31;10.13;;;6.53;;
22131;SDS011;11232;51.748;19.390;2022-09-13T08:45:37;8.55;;;7.13;;
22131;SDS011;11232;51.748;19.390;2022-09-13T08:48:04;8.32;;;6.68;;
22131;SDS011;11232;51.748;19.390;2022-09-13T08:50:36;10.02;;;6.00;;
22131;SDS011;11232;51.748;19.390;2022-09-13T09:00:41;13.13;;;7.20;;
22131;SDS011;11232;51.748;19.390;2022-09-13T09:05:49;11.32;;;7.68;;
22131;SDS011;11232;51.748;19.390;2022-09-13T09:10:55;11.95;;;6.95;;
22131;SDS011;11232;51.748;19.390;2022-09-13T09:16:37;10.70;;;6.07;;
22131;SDS011;11232;51.748;19.390;2022-09-13T09:19:11;8.45;;;6.43;;
22131;SDS011;11232;51.748;19.390;2022-09-13T09:21:48;11.35;;;6.30;;
22131;SDS011;11232;51.748;19.390;2022-09-13T09:24:22;7.32;;;5.40;;
22131;SDS011;11232;51.748;19.390;2022-09-13T09:26:49;8.38;;;5.95;;
22131;SDS011;11232;51.748;19.390;2022-09-13T09:29:21;8.73;;;5.47;;
22131;SDS011;11232;51.748;19.390;2022-09-13T09:31:56;7.35;;;4.88;;
22131;SDS011;11232;51.748;19.390;2022-09-13T09:37:38;7.22;;;4.63;;
22131;SDS011;11232;51.748;19.390;2022-09-13T09:40:08;6.35;;;4.72;;
22131;SDS011;11232;51.748;19.390;2022-09-13T09:42:47;6.28;;;4.82;;
22131;SDS011;11232;51.748;19.390;2022-09-13T09:47:45;6.65;;;4.90;;
22131;SDS011;11232;51.748;19.390;2022-09-13T09:50:15;5.78;;;3.78;;
22131;SDS011;11232;51.748;19.390;2022-09-13T09:57:59;9.68;;;6.68;;
22131;SDS011;11232;51.748;19.390;2022-09-13T10:00:29;4.68;;;4.07;;
22131;SDS011;11232;51.748;19.390;2022-09-13T10:03:17;4.00;;;3.60;;
22131;SDS011;11232;51.748;19.390;2022-09-13T10:06:03;5.45;;;4.00;;
22131;SDS011;11232;51.748;19.390;2022-09-13T10:08:36;5.60;;;4.25;;
22131;SDS011;11232;51.748;19.390;2022-09-13T10:11:03;9.98;;;4.43;;
22131;SDS011;11232;51.748;19.390;2022-09-13T10:13:30;8.10;;;3.97;;
22131;SDS011;11232;51.748;19.390;2022-09-13T10:16:00;7.95;;;4.90;;
22131;SDS011;11232;51.748;19.390;2022-09-13T10:18:36;4.45;;;3.78;;
22131;SDS011;11232;51.748;19.390;2022-09-13T10:23:44;5.35;;;3.92;;
22131;SDS011;11232;51.748;19.390;2022-09-13T10:26:21;4.45;;;3.88;;
22131;SDS011;11232;51.748;19.390;2022-09-13T10:31:44;12.48;;;4.18;;
22131;SDS011;11232;51.748;19.390;2022-09-13T10:36:40;5.22;;;3.72;;
22131;SDS011;11232;51.748;19.390;2022-09-13T10:39:19;6.10;;;3.47;;
22131;SDS011;11232;51.748;19.390;2022-09-13T10:44:38;5.22;;;3.50;;
22131;SDS011;11232;51.748;19.390;2022-09-13T10:47:10;6.45;;;3.50;;
22131;SDS011;11232;51.748;19.390;2022-09-13T10:52:25;4.75;;;3.50;;
22131;SDS011;11232;51.748;19.390;2022-09-13T10:54:55;5.05;;;3.28;;
22131;SDS011;11232;51.748;19.390;2022-09-13T10:57:42;6.20;;;3.47;;
22131;SDS011;11232;51.748;19.390;2022-09-13T11:00:16;9.07;;;4.30;;
22131;SDS011;11232;51.748;19.390;2022-09-13T11:24:05;3.70;;;3.20;;
22131;SDS011;11232;51.748;19.390;2022-09-13T11:29:54;4.75;;;3.40;;
22131;SDS011;11232;51.748;19.390;2022-09-13T11:48:55;3.60;;;3.28;;
22131;SDS011;11232;51.748;19.390;2022-09-13T11:52:00;2.90;;;2.60;;
22131;SDS011;11232;51.748;19.390;2022-09-13T11:57:12;5.38;;;3.20;;
22131;SDS011;11232;51.748;19.390;2022-09-13T11:59:48;6.00;;;3.25;;
22131;SDS011;11232;51.748;19.390;2022-09-13T12:02:23;4.93;;;3.00;;
22131;SDS011;11232;51.748;19.390;2022-09-13T12:05:13;3.72;;;3.33;;
22131;SDS011;11232;51.748;19.390;2022-09-13T12:10:41;5.07;;;3.30;;
22131;SDS011;11232;51.748;19.390;2022-09-13T12:13:20;3.47;;;2.83;;
22131;SDS011;11232;51.748;19.390;2022-09-13T12:15:51;3.30;;;3.00;;
22131;SDS011;11232;51.748;19.390;2022-09-13T12:21:11;4.43;;;3.13;;
22131;SDS011;11232;51.748;19.390;2022-09-13T12:28:45;3.08;;;2.78;;
22131;SDS011;11232;51.748;19.390;2022-09-13T12:31:16;16.60;;;4.53;;
22131;SDS011;11232;51.748;19.390;2022-09-13T12:33:46;5.28;;;3.15;;
22131;SDS011;11232;51.748;19.390;2022-09-13T12:44:51;5.90;;;3.40;;
22131;SDS011;11232;51.748;19.390;2022-09-13T12:53:09;4.68;;;3.47;;
22131;SDS011;11232;51.748;19.390;2022-09-13T13:01:16;5.78;;;3.80;;
22131;SDS011;11232;51.748;19.390;2022-09-13T13:03:53;4.10;;;3.70;;
22131;SDS011;11232;51.748;19.390;2022-09-13T13:06:33;4.55;;;3.13;;
22131;SDS011;11232;51.748;19.390;2022-09-13T13:09:50;5.15;;;3.38;;
22131;SDS011;11232;51.748;19.390;2022-09-13T13:11:56;8.15;;;4.68;;
22131;SDS011;11232;51.748;19.390;2022-09-13T13:14:27;3.88;;;3.45;;
22131;SDS011;11232;51.748;19.390;2022-09-13T13:23:33;5.63;;;4.03;;
22131;SDS011;11232;51.748;19.390;2022-09-13T13:26:08;4.63;;;3.80;;
22131;SDS011;11232;51.748;19.390;2022-09-13T13:29:15;5.60;;;4.38;;
22131;SDS011;11232;51.748;19.390;2022-09-13T13:31:45;5.85;;;3.92;;
22131;SDS011;11232;51.748;19.390;2022-09-13T13:34:36;5.38;;;4.22;;
22131;SDS011;11232;51.748;19.390;2022-09-13T13:39:45;4.90;;;4.05;;
22131;SDS011;11232;51.748;19.390;2022-09-13T13:42:21;6.18;;;4.10;;
22131;SDS011;11232;51.748;19.390;2022-09-13T13:45:13;5.28;;;4.40;;
22131;SDS011;11232;51.748;19.390;2022-09-13T13:47:41;4.35;;;3.80;;
22131;SDS011;11232;51.748;19.390;2022-09-13T13:50:17;4.80;;;3.72;;
22131;SDS011;11232;51.748;19.390;2022-09-13T13:58:43;8.95;;;4.32;;
22131;SDS011;11232;51.748;19.390;2022-09-13T14:01:23;4.97;;;3.97;;
22131;SDS011;11232;51.748;19.390;2022-09-13T14:06:55;10.43;;;4.07;;
22131;SDS011;11232;51.748;19.390;2022-09-13T14:09:37;6.50;;;4.00;;
22131;SDS011;11232;51.748;19.390;2022-09-13T14:12:33;5.20;;;4.00;;
22131;SDS011;11232;51.748;19.390;2022-09-13T14:21:03;6.47;;;4.55;;
22131;SDS011;11232;51.748;19.390;2022-09-13T14:23:42;4.80;;;3.85;;
22131;SDS011;11232;51.748;19.390;2022-09-13T14:26:08;8.40;;;4.25;;
22131;SDS011;11232;51.748;19.390;2022-09-13T14:28:35;4.47;;;4.00;;
22131;SDS011;11232;51.748;19.390;2022-09-13T14:31:01;6.60;;;4.63;;
22131;SDS011;11232;51.748;19.390;2022-09-13T14:33:28;5.85;;;4.38;;
22131;SDS011;11232;51.748;19.390;2022-09-13T14:36:00;5.20;;;4.70;;
22131;SDS011;11232;51.748;19.390;2022-09-13T14:38:31;4.97;;;4.13;;
22131;SDS011;11232;51.748;19.390;2022-09-13T14:41:02;6.13;;;4.75;;
22131;SDS011;11232;51.748;19.390;2022-09-13T14:43:34;6.18;;;5.07;;
22131;SDS011;11232;51.748;19.390;2022-09-13T14:46:04;6.22;;;4.28;;
22131;SDS011;11232;51.748;19.390;2022-09-13T14:51:04;6.63;;;4.75;;
22131;SDS011;11232;51.748;19.390;2022-09-13T14:53:56;9.45;;;4.97;;
22131;SDS011;11232;51.748;19.390;2022-09-13T14:56:34;7.38;;;5.30;;
22131;SDS011;11232;51.748;19.390;2022-09-13T15:01:50;6.25;;;4.47;;
22131;SDS011;11232;51.748;19.390;2022-09-13T15:04:15;4.93;;;4.43;;
22131;SDS011;11232;51.748;19.390;2022-09-13T15:06:43;5.45;;;4.55;;
22131;SDS011;11232;51.748;19.390;2022-09-13T15:11:35;5.00;;;4.53;;
22131;SDS011;11232;51.748;19.390;2022-09-13T15:17:00;5.13;;;4.63;;
22131;SDS011;11232;51.748;19.390;2022-09-13T15:22:12;6.75;;;5.38;;
22131;SDS011;11232;51.748;19.390;2022-09-13T15:24:56;5.93;;;5.00;;
22131;SDS011;11232;51.748;19.390;2022-09-13T15:29:57;6.47;;;5.13;;
22131;SDS011;11232;51.748;19.390;2022-09-13T15:32:30;9.32;;;5.47;;
22131;SDS011;11232;51.748;19.390;2022-09-13T15:34:58;10.10;;;5.32;;
22131;SDS011;11232;51.748;19.390;2022-09-13T15:37:33;7.25;;;5.30;;
22131;SDS011;11232;51.748;19.390;2022-09-13T15:40:14;7.88;;;5.57;;
22131;SDS011;11232;51.748;19.390;2022-09-13T15:42:49;5.95;;;5.07;;
22131;SDS011;11232;51.748;19.390;2022-09-13T15:45:17;12.13;;;5.28;;
22131;SDS011;11232;51.748;19.390;2022-09-13T15:47:45;8.57;;;5.57;;
22131;SDS011;11232;51.748;19.390;2022-09-13T15:52:50;5.82;;;5.22;;
22131;SDS011;11232;51.748;19.390;2022-09-13T15:55:17;8.48;;;5.70;;
22131;SDS011;11232;51.748;19.390;2022-09-13T15:57:43;7.25;;;5.50;;
22131;SDS011;11232;51.748;19.390;2022-09-13T16:00:20;6.85;;;5.50;;
22131;SDS011;11232;51.748;19.390;2022-09-13T16:02:48;8.07;;;5.68;;
22131;SDS011;11232;51.748;19.390;2022-09-13T16:05:14;8.32;;;6.15;;
22131;SDS011;11232;51.748;19.390;2022-09-13T16:07:40;5.75;;;4.97;;
22131;SDS011;11232;51.748;19.390;2022-09-13T16:10:10;7.15;;;5.28;;
22131;SDS011;11232;51.748;19.390;2022-09-13T16:12:39;8.52;;;5.40;;
22131;SDS011;11232;51.748;19.390;2022-09-13T16:15:05;10.45;;;6.35;;
22131;SDS011;11232;51.748;19.390;2022-09-13T16:17:31;7.43;;;5.13;;
22131;SDS011;11232;51.748;19.390;2022-09-13T16:19:57;9.02;;;5.68;;
22131;SDS011;11232;51.748;19.390;2022-09-13T16:22:23;9.00;;;5.25;;
22131;SDS011;11232;51.748;19.390;2022-09-13T16:24:48;7.68;;;5.78;;
22131;SDS011;11232;51.748;19.390;2022-09-13T16:27:14;7.15;;;5.25;;
22131;SDS011;11232;51.748;19.390;2022-09-13T16:29:41;11.63;;;6.20;;
22131;SDS011;11232;51.748;19.390;2022-09-13T16:32:07;8.27;;;5.50;;
22131;SDS011;11232;51.748;19.390;2022-09-13T16:34:33;7.22;;;5.55;;
22131;SDS011;11232;51.748;19.390;2022-09-13T16:36:59;7.30;;;5.55;;
22131;SDS011;11232;51.748;19.390;2022-09-13T16:39:25;9.38;;;6.65;;
22131;SDS011;11232;51.748;19.390;2022-09-13T16:41:50;9.27;;;5.60;;
22131;SDS011;11232;51.748;19.390;2022-09-13T16:44:16;7.68;;;6.00;;
22131;SDS011;11232;51.748;19.390;2022-09-13T16:46:42;7.63;;;6.55;;
22131;SDS011;11232;51.748;19.390;2022-09-13T16:49:08;7.35;;;6.05;;
22131;SDS011;11232;51.748;19.390;2022-09-13T16:51:34;8.63;;;6.72;;
22131;SDS011;11232;51.748;19.390;2022-09-13T16:54:00;9.05;;;6.75;;
22131;SDS011;11232;51.748;19.390;2022-09-13T16:56:26;8.55;;;6.75;;
22131;SDS011;11232;51.748;19.390;2022-09-13T16:58:52;9.02;;;6.57;;
22131;SDS011;11232;51.748;19.390;2022-09-13T17:01:20;9.68;;;6.70;;
22131;SDS011;11232;51.748;19.390;2022-09-13T17:03:50;9.27;;;6.57;;
22131;SDS011;11232;51.748;19.390;2022-09-13T17:06:17;7.75;;;6.00;;
22131;SDS011;11232;51.748;19.390;2022-09-13T17:08:47;9.57;;;6.35;;
22131;SDS011;11232;51.748;19.390;2022-09-13T17:11:19;9.65;;;7.05;;
22131;SDS011;11232;51.748;19.390;2022-09-13T17:13:46;12.43;;;7.22;;
22131;SDS011;11232;51.748;19.390;2022-09-13T17:16:46;7.88;;;6.40;;
22131;SDS011;11232;51.748;19.390;2022-09-13T17:19:13;9.85;;;6.38;;
22131;SDS011;11232;51.748;19.390;2022-09-13T17:21:43;8.75;;;6.68;;
22131;SDS011;11232;51.748;19.390;2022-09-13T17:24:10;8.25;;;6.80;;
22131;SDS011;11232;51.748;19.390;2022-09-13T17:26:36;8.80;;;7.20;;
22131;SDS011;11232;51.748;19.390;2022-09-13T17:29:03;9.23;;;7.15;;
22131;SDS011;11232;51.748;19.390;2022-09-13T17:31:28;10.25;;;7.03;;
22131;SDS011;11232;51.748;19.390;2022-09-13T17:33:54;8.43;;;6.68;;
22131;SDS011;11232;51.748;19.390;2022-09-13T17:36:20;8.85;;;7.18;;
22131;SDS011;11232;51.748;19.390;2022-09-13T17:38:46;9.15;;;6.38;;
22131;SDS011;11232;51.748;19.390;2022-09-13T17:41:14;8.85;;;6.93;;
22131;SDS011;11232;51.748;19.390;2022-09-13T17:43:43;8.50;;;6.40;;
22131;SDS011;11232;51.748;19.390;2022-09-13T17:46:11;11.50;;;6.72;;
22131;SDS011;11232;51.748;19.390;2022-09-13T17:48:37;9.23;;;6.60;;
22131;SDS011;11232;51.748;19.390;2022-09-13T17:51:04;8.65;;;6.45;;
22131;SDS011;11232;51.748;19.390;2022-09-13T17:53:31;9.07;;;6.82;;
22131;SDS011;11232;51.748;19.390;2022-09-13T17:56:01;9.80;;;7.22;;
22131;SDS011;11232;51.748;19.390;2022-09-13T17:58:27;8.55;;;6.80;;
22131;SDS011;11232;51.748;19.390;2022-09-13T18:01:00;8.80;;;6.50;;
22131;SDS011;11232;51.748;19.390;2022-09-13T18:03:29;12.10;;;7.45;;
22131;SDS011;11232;51.748;19.390;2022-09-13T18:05:56;11.35;;;7.22;;
22131;SDS011;11232;51.748;19.390;2022-09-13T18:08:23;11.32;;;7.50;;
22131;SDS011;11232;51.748;19.390;2022-09-13T18:10:50;10.90;;;7.35;;
22131;SDS011;11232;51.748;19.390;2022-09-13T18:13:16;14.68;;;7.57;;
22131;SDS011;11232;51.748;19.390;2022-09-13T18:15:43;13.85;;;7.63;;
22131;SDS011;11232;51.748;19.390;2022-09-13T18:18:10;10.13;;;7.75;;
22131;SDS011;11232;51.748;19.390;2022-09-13T18:20:43;11.23;;;7.30;;
22131;SDS011;11232;51.748;19.390;2022-09-13T18:23:10;10.23;;;7.75;;